createdAt,value
2022-10-31T00:01:13.596Z,100885.13
2022-10-31T00:06:19.159Z,100873.22
2022-10-31T00:11:22.068Z,100881.84
2022-10-31T00:16:26.297Z,100884.31
2022-10-31T00:21:31.595Z,100878.41
2022-10-31T00:26:34.410Z,100879.13
2022-10-31T00:31:37.060Z,100878.41
2022-10-31T00:36:41.103Z,100891.22
2022-10-31T00:41:43.814Z,100901.00
2022-10-31T00:46:46.491Z,100899.69
2022-10-31T00:51:50.419Z,100905.13
2022-10-31T00:56:53.040Z,100900.22
2022-10-31T01:01:55.853Z,100900.50
2022-10-31T01:06:59.912Z,100895.63
2022-10-31T01:12:02.581Z,100908.38
2022-10-31T01:17:05.184Z,100913.09
2022-10-31T01:22:09.183Z,100914.97
2022-10-31T01:27:11.766Z,100909.25
2022-10-31T01:32:14.311Z,100899.16
2022-10-31T01:37:18.307Z,100900.22
2022-10-31T01:42:22.987Z,100887.44
2022-10-31T01:47:40.887Z,100901.31
2022-10-31T01:52:48.119Z,100893.69
2022-10-31T01:57:55.774Z,100915.41
2022-10-31T02:02:58.757Z,100914.16
2022-10-31T02:08:07.483Z,100898.88
2022-10-31T02:13:10.795Z,100915.00
2022-10-31T02:18:13.505Z,100913.63
2022-10-31T02:23:45.194Z,100918.00
2022-10-31T02:29:12.470Z,100913.34
2022-10-31T02:34:21.468Z,100927.56
2022-10-31T02:39:28.396Z,100903.53
2022-10-31T02:44:37.645Z,100922.88
2022-10-31T02:49:47.734Z,100895.03
2022-10-31T02:54:50.722Z,100900.50
2022-10-31T02:59:57.150Z,100923.41
2022-10-31T03:05:18.671Z,100938.63
2022-10-31T03:10:33.514Z,100932.19
2022-10-31T03:15:39.398Z,100924.50
2022-10-31T03:20:47.807Z,100933.09
2022-10-31T03:25:51.216Z,100945.78
2022-10-31T03:30:55.941Z,100952.09
2022-10-31T03:36:02.451Z,100943.91
2022-10-31T03:41:07.899Z,100944.13
2022-10-31T03:46:10.936Z,100964.69
2022-10-31T03:51:21.682Z,100955.72
2022-10-31T03:56:29.505Z,100965.00
2022-10-31T04:01:36.724Z,100962.25
2022-10-31T04:06:43.961Z,100963.03
2022-10-31T04:11:50.954Z,100972.06
2022-10-31T04:16:53.737Z,100974.53
2022-10-31T04:21:57.738Z,100965.31
2022-10-31T04:27:00.312Z,100969.78
2022-10-31T04:32:02.851Z,100983.19
2022-10-31T04:37:06.833Z,100978.38
2022-10-31T04:42:09.456Z,100993.88
2022-10-31T04:47:12.045Z,100996.53
2022-10-31T04:52:16.077Z,100991.16
2022-10-31T04:57:18.682Z,100989.38
2022-10-31T05:02:21.496Z,100980.69
2022-10-31T05:07:25.510Z,100995.38
2022-10-31T05:12:28.186Z,100977.75
2022-10-31T05:17:30.830Z,100993.22
2022-10-31T05:22:34.837Z,100984.41
2022-10-31T05:27:40.853Z,100985.56
2022-10-31T05:32:44.986Z,100990.16
2022-10-31T05:37:49.073Z,100990.16
2022-10-31T05:42:53.985Z,100969.69
2022-10-31T05:47:58.299Z,100990.13
2022-10-31T05:53:03.260Z,100996.41
2022-10-31T05:58:05.892Z,100976.47
2022-10-31T06:03:10.933Z,101006.78
2022-10-31T06:08:15.156Z,100996.66
2022-10-31T06:13:18.076Z,100988.22
2022-10-31T06:18:20.681Z,100994.78
2022-10-31T06:23:24.670Z,101015.00
2022-10-31T06:28:27.277Z,101011.72
2022-10-31T06:33:30.057Z,101030.94
2022-10-31T06:38:34.204Z,101020.81
2022-10-31T06:43:36.874Z,101023.38
2022-10-31T06:48:39.642Z,101031.38
2022-10-31T06:53:43.688Z,101039.09
2022-10-31T06:58:46.560Z,101053.94
2022-10-31T07:03:49.261Z,101030.94
2022-10-31T07:08:53.436Z,101058.63
2022-10-31T07:13:56.140Z,101047.63
2022-10-31T07:18:59.035Z,101072.75
2022-10-31T07:24:03.311Z,101068.81
2022-10-31T07:29:08.461Z,101053.53
2022-10-31T07:34:18.094Z,101051.38
2022-10-31T07:39:26.372Z,101072.16
2022-10-31T07:44:29.058Z,101067.22
2022-10-31T07:49:31.700Z,101049.66
2022-10-31T07:54:35.833Z,101063.94
2022-10-31T07:59:38.537Z,101067.47
2022-10-31T08:04:41.217Z,101053.56
2022-10-31T08:09:45.399Z,101061.28
2022-10-31T08:14:48.149Z,101068.41
2022-10-31T08:19:50.817Z,101065.25
2022-10-31T08:24:54.962Z,101056.78
2022-10-31T08:29:57.631Z,101060.78
2022-10-31T08:35:00.237Z,101051.59
2022-10-31T08:40:04.835Z,101050.78
2022-10-31T08:45:08.037Z,101069.75
2022-10-31T08:50:11.061Z,101071.69
2022-10-31T08:55:15.181Z,101044.41
2022-10-31T09:00:18.172Z,101046.16
2022-10-31T09:05:20.852Z,101053.31
2022-10-31T09:10:25.574Z,101048.31
2022-10-31T09:15:29.563Z,101040.69
2022-10-31T09:20:33.463Z,101029.38
2022-10-31T09:25:38.082Z,101015.91
2022-10-31T09:30:41.160Z,101027.63
2022-10-31T09:35:44.042Z,101021.50
2022-10-31T09:40:50.063Z,101034.00
2022-10-31T09:46:02.883Z,101018.84
2022-10-31T09:51:09.563Z,101022.56
2022-10-31T09:56:16.758Z,101015.00
2022-10-31T10:01:32.561Z,101032.47
2022-10-31T10:06:39.047Z,101029.25
2022-10-31T10:11:55.069Z,101016.53
2022-10-31T10:17:12.080Z,101033.25
2022-10-31T10:22:20.461Z,101023.44
2022-10-31T10:27:30.198Z,101017.31
2022-10-31T10:32:43.906Z,101020.34
2022-10-31T10:37:51.262Z,101014.53
2022-10-31T10:43:23.140Z,101018.16
2022-10-31T10:48:44.076Z,101016.63
2022-10-31T10:54:10.314Z,100996.50
2022-10-31T10:59:18.629Z,100992.59
2022-10-31T11:04:30.205Z,100997.53
2022-10-31T11:09:35.092Z,101006.44
2022-10-31T11:14:47.265Z,100983.50
2022-10-31T11:19:50.197Z,100977.78
2022-10-31T11:24:53.117Z,100958.38
2022-10-31T11:30:06.631Z,100958.09
2022-10-31T11:35:18.992Z,100959.25
2022-10-31T11:40:24.086Z,100950.41
2022-10-31T11:45:34.667Z,100945.50
2022-10-31T11:50:41.287Z,100951.22
2022-10-31T11:55:44.059Z,100929.03
2022-10-31T12:00:51.764Z,100947.06
2022-10-31T12:06:01.144Z,100940.50
2022-10-31T12:11:13.324Z,100935.63
2022-10-31T12:16:22.328Z,100912.94
2022-10-31T12:21:51.587Z,100912.16
2022-10-31T12:27:03.516Z,100906.22
2022-10-31T12:32:22.637Z,100910.22
2022-10-31T12:37:42.168Z,100903.88
2022-10-31T12:43:05.805Z,100894.66
2022-10-31T12:48:30.343Z,100901.13
2022-10-31T12:53:45.665Z,100894.25
2022-10-31T12:58:53.730Z,100881.66
2022-10-31T13:04:03.340Z,100891.34
2022-10-31T13:09:11.075Z,100871.44
2022-10-31T13:14:23.202Z,100872.50
2022-10-31T13:19:32.319Z,100851.63
2022-10-31T13:24:38.610Z,100854.44
2022-10-31T13:29:48.332Z,100862.69
2022-10-31T13:34:57.757Z,100841.88
2022-10-31T13:40:14.036Z,100851.50
2022-10-31T13:45:19.103Z,100837.78
2022-10-31T13:50:25.669Z,100833.03
2022-10-31T13:55:38.620Z,100819.00
2022-10-31T14:00:41.365Z,100831.09
2022-10-31T14:05:55.401Z,100808.31
2022-10-31T14:10:58.541Z,100812.13
2022-10-31T14:16:05.869Z,100791.50
2022-10-31T14:21:29.214Z,100815.19
2022-10-31T14:26:35.373Z,100789.03
2022-10-31T14:31:40.163Z,100794.94
2022-10-31T14:36:55.808Z,100785.31
2022-10-31T14:42:12.877Z,100785.91
2022-10-31T14:47:24.080Z,100786.28
2022-10-31T14:52:29.862Z,100782.31
2022-10-31T14:57:39.510Z,100770.03
2022-10-31T15:02:51.222Z,100766.56
2022-10-31T15:07:56.955Z,100762.50
2022-10-31T15:13:11.478Z,100762.44
2022-10-31T15:18:18.268Z,100759.34
2022-10-31T15:23:27.871Z,100764.75
2022-10-31T15:28:32.371Z,100762.66
2022-10-31T15:33:48.157Z,100749.31
2022-10-31T15:38:52.661Z,100738.97
2022-10-31T15:43:56.493Z,100739.78
2022-10-31T15:48:59.861Z,100744.25
2022-10-31T15:54:03.933Z,100726.13
2022-10-31T15:59:06.737Z,100722.59
2022-10-31T16:04:23.839Z,100717.72
2022-10-31T16:09:28.213Z,100711.75
2022-10-31T16:14:42.292Z,100716.66
2022-10-31T16:19:53.083Z,100730.19
2022-10-31T16:25:05.173Z,100720.75
2022-10-31T16:30:30.489Z,100735.91
2022-10-31T16:35:35.837Z,100723.16
2022-10-31T16:40:41.171Z,100705.53
2022-10-31T16:45:46.575Z,100719.41
2022-10-31T16:50:50.010Z,100713.13
2022-10-31T16:55:58.679Z,100708.25
2022-10-31T17:01:03.041Z,100709.59
2022-10-31T17:06:05.941Z,100706.25
2022-10-31T17:11:15.290Z,100703.25
2022-10-31T17:16:17.982Z,100702.22
2022-10-31T17:21:23.880Z,100705.31
2022-10-31T17:26:28.265Z,100698.66
2022-10-31T17:31:31.852Z,100713.22
2022-10-31T17:36:35.427Z,100697.00
2022-10-31T17:41:39.503Z,100707.66
2022-10-31T17:46:42.110Z,100698.63
2022-10-31T17:51:44.717Z,100696.44
2022-10-31T17:56:48.687Z,100667.94
2022-10-31T18:01:51.463Z,100689.63
2022-10-31T18:06:54.259Z,100669.84
2022-10-31T18:11:58.389Z,100679.38
2022-10-31T18:17:01.038Z,100665.38
2022-10-31T18:22:03.752Z,100671.06
2022-10-31T18:27:08.040Z,100660.50
2022-10-31T18:32:10.692Z,100655.69
2022-10-31T18:37:13.406Z,100639.88
2022-10-31T18:42:17.517Z,100643.63
2022-10-31T18:47:23.198Z,100633.31
2022-10-31T18:52:25.804Z,100631.22
2022-10-31T18:57:29.997Z,100619.56
2022-10-31T19:02:33.056Z,100620.56
2022-10-31T19:07:36.638Z,100618.69
2022-10-31T19:12:40.573Z,100606.84
2022-10-31T19:17:43.265Z,100612.31
2022-10-31T19:22:46.003Z,100606.16
2022-10-31T19:27:50.053Z,100590.44
2022-10-31T19:32:55.765Z,100603.22
2022-10-31T19:37:58.830Z,100605.78
2022-10-31T19:43:03.032Z,100606.38
2022-10-31T19:48:06.134Z,100605.19
2022-10-31T19:53:09.503Z,100593.06
2022-10-31T19:58:14.142Z,100570.94
2022-10-31T20:03:19.913Z,100606.44
2022-10-31T20:08:25.033Z,100594.31
2022-10-31T20:13:29.993Z,100585.56
2022-10-31T20:18:32.902Z,100575.34
2022-10-31T20:23:36.636Z,100564.91
2022-10-31T20:28:43.226Z,100578.41
2022-10-31T20:33:46.306Z,100564.88
2022-10-31T20:38:48.920Z,100546.41
2022-10-31T20:43:53.497Z,100550.63
2022-10-31T20:48:56.131Z,100553.25
2022-10-31T20:54:00.582Z,100530.22
2022-10-31T20:59:04.482Z,100531.34
2022-10-31T21:04:09.769Z,100527.00
2022-10-31T21:09:12.489Z,100510.78
2022-10-31T21:14:16.500Z,100545.75
2022-10-31T21:19:19.139Z,100537.53
2022-10-31T21:24:22.324Z,100525.69
2022-10-31T21:29:26.281Z,100526.84
2022-10-31T21:34:28.884Z,100515.47
2022-10-31T21:39:31.431Z,100502.59
2022-10-31T21:44:35.464Z,100511.81
2022-10-31T21:49:38.076Z,100490.50
2022-10-31T21:54:40.675Z,100482.81
2022-10-31T21:59:48.360Z,100473.00
2022-10-31T22:04:51.418Z,100465.53
2022-10-31T22:09:54.011Z,100463.81
2022-10-31T22:14:57.972Z,100459.66
2022-10-31T22:20:00.581Z,100466.94
2022-10-31T22:25:03.147Z,100443.56
2022-10-31T22:30:08.530Z,100453.78
2022-10-31T22:35:11.165Z,100442.03
2022-10-31T22:40:13.831Z,100437.19
2022-10-31T22:45:18.062Z,100424.84
2022-10-31T22:50:20.733Z,100413.06
2022-10-31T22:55:23.399Z,100397.50
2022-10-31T23:00:27.387Z,100399.13
2022-10-31T23:05:29.998Z,100389.47
2022-10-31T23:10:34.196Z,100398.56
2022-10-31T23:15:39.185Z,100398.97
2022-10-31T23:20:41.772Z,100395.41
2022-10-31T23:26:02.739Z,100388.19
2022-10-31T23:31:06.828Z,100381.25
2022-10-31T23:36:09.879Z,100371.41
2022-10-31T23:41:12.497Z,100381.63
2022-10-31T23:46:16.509Z,100366.81
2022-10-31T23:51:19.111Z,100364.47
2022-10-31T23:56:21.802Z,100337.25
